]idnight River — HP7399 — position and weather

sailwx.info

Track history (hours):
 
Tides and Currents Weather Stations Pressure Air Temp Water Temp Dewpoint Dewpoint Depression Visibility Wind Speed Wind Dir Waves Ship Positions

]idnight River

Last reported at 2015-Jul-30 07:12 UTC. Time now 2015-Aug-03 21:24 UTC.
Position N 18°25' W 064°36'.

; draft 9 m.

Type: Ship. MMSI: 352319000.

Date/timePositionNaut miles runAvg speedWind from/ knotsBaromVisibWave heightAir tempDewpointWater temp
2015-Jul-30 07:12N 18°25' W 064°36'6 9.7
2015-Jul-30 06:33N 18°24' W 064°30'6210.1
2015-Jul-30 00:25N 17°54' W 063°33'27 2.7
2015-Jul-29 14:26N 17°47' W 063°06'8 9.3
2015-Jul-29 13:33N 17°55' W 063°08'9 9.4
2015-Jul-29 12:33N 18°04' W 063°10'5 4.4
2015-Jul-29 11:31N 18°05' W 063°05'0 0.0
2015-Jul-29 10:33N 18°05' W 063°05'0 0.0
2015-Jul-29 09:32N 18°05' W 063°05'0 0.0
2015-Jul-29 08:33N 18°05' W 063°05'0 0.0
2015-Jul-29 07:33N 18°05' W 063°05'0 0.0
2015-Jul-29 06:33N 18°05' W 063°05'0 0.0
2015-Jul-29 05:32N 18°05' W 063°05'0 0.3
2015-Jul-29 04:33N 18°05' W 063°05'0 0.0
2015-Jul-29 03:33N 18°05' W 063°05'0 0.0
2015-Jul-29 02:31N 18°05' W 063°05'0 0.0
2015-Jul-29 01:33N 18°05' W 063°05'0 0.0
2015-Jul-29 00:33N 18°05' W 063°05'0 0.0
2015-Jul-28 23:32N 18°05' W 063°05'0 0.0
2015-Jul-28 22:32N 18°05' W 063°05'0 0.3
2015-Jul-28 21:32N 18°05' W 063°05'0 0.0
2015-Jul-28 20:32N 18°05' W 063°05'0 0.0
2015-Jul-28 19:33N 18°05' W 063°05'0 0.0
2015-Jul-28 18:33N 18°05' W 063°05'0 0.0
2015-Jul-28 17:32N 18°05' W 063°05'0 0.0
2015-Jul-28 16:31N 18°05' W 063°05'0 0.2
2015-Jul-28 15:33N 18°05' W 063°05'7 7.5
2015-Jul-28 14:33N 18°11' W 063°10'1 0.7
2015-Jul-28 12:33N 18°12' W 063°09'9 9.1
2015-Jul-28 11:33N 18°12' W 063°19'67 8.4
2015-Jul-28 03:32N 18°24' W 064°28'7 1.4
2015-Jul-27 22:22N 18°24' W 064°36'3 3.3
2015-Jul-27 21:33N 18°22' W 064°35'5 4.9
2015-Jul-27 20:33N 18°25' W 064°31'3 1.0
2015-Jul-27 17:29N 18°26' W 064°28'6 0.2
2015-Jul-26 11:33N 18°24' W 064°34'60 9.9
2015-Jul-26 05:32N 18°11' W 063°33'9 9.7
2015-Jul-26 04:33N 18°09' W 063°24'10 9.6
2015-Jul-26 03:33N 18°07' W 063°14'8 8.3
2015-Jul-26 02:32N 18°05' W 063°05'0 0.0
2015-Jul-26 01:33N 18°05' W 063°05'0 0.0
2015-Jul-26 00:33N 18°05' W 063°05'0 0.0
2015-Jul-25 23:32N 18°05' W 063°05'0 0.0
2015-Jul-25 22:32N 18°05' W 063°05'0 0.0
2015-Jul-25 21:33N 18°05' W 063°05'0 0.0
2015-Jul-25 20:31N 18°05' W 063°05'0 0.0
2015-Jul-25 19:33N 18°05' W 063°05'0 0.0
2015-Jul-25 18:32N 18°05' W 063°05'0 0.1
2015-Jul-25 17:32N 18°05' W 063°05'0 0.0
2015-Jul-25 07:32N 18°05' W 063°05'0 0.0
2015-Jul-25 06:31N 18°05' W 063°05'0 0.0
2015-Jul-25 05:33N 18°05' W 063°05'0 0.0
2015-Jul-25 04:33N 18°05' W 063°05'0 0.0
2015-Jul-25 03:30N 18°05' W 063°05'0 0.0
2015-Jul-25 02:31N 18°05' W 063°05'0 0.0
2015-Jul-25 01:32N 18°05' W 063°05'0 0.0
2015-Jul-25 00:31N 18°05' W 063°05'0 0.4
2015-Jul-24 23:32N 18°05' W 063°05'0 0.0
2015-Jul-24 22:33N 18°05' W 063°05'0 0.0
2015-Jul-24 21:32N 18°05' W 063°05'0 0.0
2015-Jul-24 20:33N 18°05' W 063°05'0 0.0
2015-Jul-24 19:31N 18°05' W 063°05'0 0.0
2015-Jul-24 18:31N 18°05' W 063°05'0 0.0
2015-Jul-24 17:33N 18°05' W 063°05'0 0.0
2015-Jul-24 07:33N 18°05' W 063°05'0 0.0
2015-Jul-24 06:32N 18°05' W 063°05'0 0.0
2015-Jul-24 05:32N 18°05' W 063°05'0 0.0
2015-Jul-24 04:31N 18°05' W 063°05'0 0.0
2015-Jul-24 03:34N 18°05' W 063°05'0 0.0
2015-Jul-24 02:31N 18°05' W 063°05'0 0.0
2015-Jul-24 01:33N 18°05' W 063°05'0 0.0
2015-Jul-24 00:32N 18°05' W 063°05'0 0.0
2015-Jul-23 23:32N 18°05' W 063°05'0 0.2
2015-Jul-23 22:33N 18°05' W 063°05'0 0.0
2015-Jul-23 21:33N 18°05' W 063°05'0 0.0
2015-Jul-23 20:33N 18°05' W 063°05'0 0.0
2015-Jul-23 19:33N 18°05' W 063°05'0 0.0
2015-Jul-23 18:32N 18°05' W 063°05'0 0.2
2015-Jul-23 17:33N 18°05' W 063°05'0 0.0
2015-Jul-23 07:28N 18°05' W 063°05'0 0.0
2015-Jul-23 06:33N 18°05' W 063°05'0 0.0
2015-Jul-23 05:33N 18°05' W 063°05'0 0.0
2015-Jul-23 04:32N 18°05' W 063°05'0 0.0
2015-Jul-23 03:32N 18°05' W 063°05'0 0.0
2015-Jul-23 02:30N 18°05' W 063°05'0 0.0
2015-Jul-23 01:32N 18°05' W 063°05'0 0.0
2015-Jul-23 00:33N 18°05' W 063°05'0 0.5
2015-Jul-22 23:33N 18°05' W 063°05'0 0.0
2015-Jul-22 22:32N 18°05' W 063°05'0 0.3
2015-Jul-22 21:33N 18°05' W 063°05'0 0.0
2015-Jul-22 20:33N 18°05' W 063°05'2 2.1
2015-Jul-22 19:33N 18°05' W 063°07'8 7.6
2015-Jul-22 18:33N 17°58' W 063°09'14 1.5
2015-Jul-22 09:28N 17°44' W 063°05'9 9.1
2015-Jul-22 08:32N 17°52' W 063°07'9 9.2
2015-Jul-22 07:33N 18°01' W 063°09'5 5.3
2015-Jul-22 06:32N 18°05' W 063°05'0 0.0
2015-Jul-22 05:33N 18°05' W 063°05'0 0.0
2015-Jul-22 04:32N 18°05' W 063°05'0 0.0
2015-Jul-22 03:31N 18°05' W 063°05'0 0.0
2015-Jul-22 02:32N 18°05' W 063°05'0 0.2
2015-Jul-22 01:30N 18°05' W 063°05'2 0.3
2015-Jul-21 19:14N 18°06' W 063°05'2 2.1
2015-Jul-21 18:31N 18°05' W 063°05'0 0.0
2015-Jul-21 17:33N 18°05' W 063°05'0 0.3
2015-Jul-21 16:33N 18°05' W 063°05'0 0.4
2015-Jul-21 15:33N 18°05' W 063°06'7 1.4
2015-Jul-21 10:09N 18°12' W 063°08'4 6.9
2015-Jul-21 09:32N 18°11' W 063°13'8 7.8
2015-Jul-21 08:33N 18°11' W 063°21'65 9.2
2015-Jul-21 01:32N 18°24' W 064°28'2 0.8
2015-Jul-20 22:29N 18°26' W 064°28'  
Track history (hours):
 
Tides and Currents Weather Stations Pressure Air Temp Water Temp Dewpoint Dewpoint Depression Visibility Wind Speed Wind Dir Waves Ship Positions

]idnight River

Last reported at 2015-Jul-30 07:12 UTC. Time now 2015-Aug-03 21:24 UTC.
Position N 18°25' W 064°36'.

; draft 9 m.

Type: Ship. MMSI: 352319000.

Date/timePositionNaut miles runAvg speedWind from/ knotsBaromVisibWave heightAir tempDewpointWater temp
2015-Jul-30 07:12N 18°25' W 064°36'6 9.7
2015-Jul-30 06:33N 18°24' W 064°30'6210.1
2015-Jul-30 00:25N 17°54' W 063°33'27 2.7
2015-Jul-29 14:26N 17°47' W 063°06'8 9.3
2015-Jul-29 13:33N 17°55' W 063°08'9 9.4
2015-Jul-29 12:33N 18°04' W 063°10'5 4.4
2015-Jul-29 11:31N 18°05' W 063°05'0 0.0
2015-Jul-29 10:33N 18°05' W 063°05'0 0.0
2015-Jul-29 09:32N 18°05' W 063°05'0 0.0
2015-Jul-29 08:33N 18°05' W 063°05'0 0.0
2015-Jul-29 07:33N 18°05' W 063°05'0 0.0
2015-Jul-29 06:33N 18°05' W 063°05'0 0.0
2015-Jul-29 05:32N 18°05' W 063°05'0 0.3
2015-Jul-29 04:33N 18°05' W 063°05'0 0.0
2015-Jul-29 03:33N 18°05' W 063°05'0 0.0
2015-Jul-29 02:31N 18°05' W 063°05'0 0.0
2015-Jul-29 01:33N 18°05' W 063°05'0 0.0
2015-Jul-29 00:33N 18°05' W 063°05'0 0.0
2015-Jul-28 23:32N 18°05' W 063°05'0 0.0
2015-Jul-28 22:32N 18°05' W 063°05'0 0.3
2015-Jul-28 21:32N 18°05' W 063°05'0 0.0
2015-Jul-28 20:32N 18°05' W 063°05'0 0.0
2015-Jul-28 19:33N 18°05' W 063°05'0 0.0
2015-Jul-28 18:33N 18°05' W 063°05'0 0.0
2015-Jul-28 17:32N 18°05' W 063°05'0 0.0
2015-Jul-28 16:31N 18°05' W 063°05'0 0.2
2015-Jul-28 15:33N 18°05' W 063°05'7 7.5
2015-Jul-28 14:33N 18°11' W 063°10'1 0.7
2015-Jul-28 12:33N 18°12' W 063°09'9 9.1
2015-Jul-28 11:33N 18°12' W 063°19'67 8.4
2015-Jul-28 03:32N 18°24' W 064°28'7 1.4
2015-Jul-27 22:22N 18°24' W 064°36'3 3.3
2015-Jul-27 21:33N 18°22' W 064°35'5 4.9
2015-Jul-27 20:33N 18°25' W 064°31'3 1.0
2015-Jul-27 17:29N 18°26' W 064°28'6 0.2
2015-Jul-26 11:33N 18°24' W 064°34'60 9.9
2015-Jul-26 05:32N 18°11' W 063°33'9 9.7
2015-Jul-26 04:33N 18°09' W 063°24'10 9.6
2015-Jul-26 03:33N 18°07' W 063°14'8 8.3
2015-Jul-26 02:32N 18°05' W 063°05'0 0.0
2015-Jul-26 01:33N 18°05' W 063°05'0 0.0
2015-Jul-26 00:33N 18°05' W 063°05'0 0.0
2015-Jul-25 23:32N 18°05' W 063°05'0 0.0
2015-Jul-25 22:32N 18°05' W 063°05'0 0.0
2015-Jul-25 21:33N 18°05' W 063°05'0 0.0
2015-Jul-25 20:31N 18°05' W 063°05'0 0.0
2015-Jul-25 19:33N 18°05' W 063°05'0 0.0
2015-Jul-25 18:32N 18°05' W 063°05'0 0.1
2015-Jul-25 17:32N 18°05' W 063°05'0 0.0
2015-Jul-25 07:32N 18°05' W 063°05'0 0.0
2015-Jul-25 06:31N 18°05' W 063°05'0 0.0
2015-Jul-25 05:33N 18°05' W 063°05'0 0.0
2015-Jul-25 04:33N 18°05' W 063°05'0 0.0
2015-Jul-25 03:30N 18°05' W 063°05'0 0.0
2015-Jul-25 02:31N 18°05' W 063°05'0 0.0
2015-Jul-25 01:32N 18°05' W 063°05'0 0.0
2015-Jul-25 00:31N 18°05' W 063°05'0 0.4
2015-Jul-24 23:32N 18°05' W 063°05'0 0.0
2015-Jul-24 22:33N 18°05' W 063°05'0 0.0
2015-Jul-24 21:32N 18°05' W 063°05'0 0.0
2015-Jul-24 20:33N 18°05' W 063°05'0 0.0
2015-Jul-24 19:31N 18°05' W 063°05'0 0.0
2015-Jul-24 18:31N 18°05' W 063°05'0 0.0
2015-Jul-24 17:33N 18°05' W 063°05'0 0.0
2015-Jul-24 07:33N 18°05' W 063°05'0 0.0
2015-Jul-24 06:32N 18°05' W 063°05'0 0.0
2015-Jul-24 05:32N 18°05' W 063°05'0 0.0
2015-Jul-24 04:31N 18°05' W 063°05'0 0.0
2015-Jul-24 03:34N 18°05' W 063°05'0 0.0
2015-Jul-24 02:31N 18°05' W 063°05'0 0.0
2015-Jul-24 01:33N 18°05' W 063°05'0 0.0
2015-Jul-24 00:32N 18°05' W 063°05'0 0.0
2015-Jul-23 23:32N 18°05' W 063°05'0 0.2
2015-Jul-23 22:33N 18°05' W 063°05'0 0.0
2015-Jul-23 21:33N 18°05' W 063°05'0 0.0
2015-Jul-23 20:33N 18°05' W 063°05'0 0.0
2015-Jul-23 19:33N 18°05' W 063°05'0 0.0
2015-Jul-23 18:32N 18°05' W 063°05'0 0.2
2015-Jul-23 17:33N 18°05' W 063°05'0 0.0
2015-Jul-23 07:28N 18°05' W 063°05'0 0.0
2015-Jul-23 06:33N 18°05' W 063°05'0 0.0
2015-Jul-23 05:33N 18°05' W 063°05'0 0.0
2015-Jul-23 04:32N 18°05' W 063°05'0 0.0
2015-Jul-23 03:32N 18°05' W 063°05'0 0.0
2015-Jul-23 02:30N 18°05' W 063°05'0 0.0
2015-Jul-23 01:32N 18°05' W 063°05'0 0.0
2015-Jul-23 00:33N 18°05' W 063°05'0 0.5
2015-Jul-22 23:33N 18°05' W 063°05'0 0.0
2015-Jul-22 22:32N 18°05' W 063°05'0 0.3
2015-Jul-22 21:33N 18°05' W 063°05'0 0.0
2015-Jul-22 20:33N 18°05' W 063°05'2 2.1
2015-Jul-22 19:33N 18°05' W 063°07'8 7.6
2015-Jul-22 18:33N 17°58' W 063°09'14 1.5
2015-Jul-22 09:28N 17°44' W 063°05'9 9.1
2015-Jul-22 08:32N 17°52' W 063°07'9 9.2
2015-Jul-22 07:33N 18°01' W 063°09'5 5.3
2015-Jul-22 06:32N 18°05' W 063°05'0 0.0
2015-Jul-22 05:33N 18°05' W 063°05'0 0.0
2015-Jul-22 04:32N 18°05' W 063°05'0 0.0
2015-Jul-22 03:31N 18°05' W 063°05'0 0.0
2015-Jul-22 02:32N 18°05' W 063°05'0 0.2
2015-Jul-22 01:30N 18°05' W 063°05'2 0.3
2015-Jul-21 19:14N 18°06' W 063°05'2 2.1
2015-Jul-21 18:31N 18°05' W 063°05'0 0.0
2015-Jul-21 17:33N 18°05' W 063°05'0 0.3
2015-Jul-21 16:33N 18°05' W 063°05'0 0.4
2015-Jul-21 15:33N 18°05' W 063°06'7 1.4
2015-Jul-21 10:09N 18°12' W 063°08'4 6.9
2015-Jul-21 09:32N 18°11' W 063°13'8 7.8
2015-Jul-21 08:33N 18°11' W 063°21'65 9.2
2015-Jul-21 01:32N 18°24' W 064°28'2 0.8
2015-Jul-20 22:29N 18°26' W 064°28'  

Dump ship's entire track history